createdAt,value
2018-04-16T00:00:52.917Z,14.29
2018-04-16T00:01:53.493Z,14.48
2018-04-16T00:02:54.063Z,14.51
2018-04-16T00:03:54.641Z,14.26
2018-04-16T00:04:55.212Z,14.08
2018-04-16T00:05:55.795Z,14.23
2018-04-16T00:06:56.361Z,14.30
2018-04-16T00:07:56.937Z,14.51
2018-04-16T00:08:57.510Z,14.33
2018-04-16T00:09:58.095Z,13.95
2018-04-16T00:10:58.669Z,14.20
2018-04-16T00:11:59.244Z,14.32
2018-04-16T00:12:59.819Z,14.33
2018-04-16T00:14:00.392Z,14.22
2018-04-16T00:15:00.964Z,14.25
2018-04-16T00:16:01.539Z,14.23
2018-04-16T00:17:02.120Z,14.14
2018-04-16T00:18:02.695Z,14.03
2018-04-16T00:19:03.268Z,13.90
2018-04-16T00:20:03.842Z,13.87
2018-04-16T00:21:04.416Z,13.70
2018-04-16T00:22:04.988Z,13.65
2018-04-16T00:23:05.565Z,13.46
2018-04-16T00:24:06.145Z,13.67
2018-04-16T00:25:06.720Z,13.62
2018-04-16T00:26:07.294Z,13.60
2018-04-16T00:27:07.867Z,13.79
2018-04-16T00:28:08.439Z,14.10
2018-04-16T00:29:09.012Z,13.59
2018-04-16T00:30:09.587Z,13.50
2018-04-16T00:31:10.160Z,13.52
2018-04-16T00:32:10.736Z,13.81
2018-04-16T00:33:11.320Z,13.81
2018-04-16T00:34:11.893Z,14.04
2018-04-16T00:35:12.466Z,13.89
2018-04-16T00:36:13.040Z,14.14
2018-04-16T00:37:13.623Z,13.70
2018-04-16T00:38:14.198Z,13.70
2018-04-16T00:39:14.772Z,14.10
2018-04-16T00:40:15.344Z,13.93
2018-04-16T00:41:15.916Z,13.79
2018-04-16T00:42:16.489Z,13.81
2018-04-16T00:43:17.063Z,13.95
2018-04-16T00:44:17.647Z,13.89
2018-04-16T00:45:18.232Z,13.81
2018-04-16T00:46:18.805Z,13.89
2018-04-16T00:47:19.380Z,13.56
2018-04-16T00:48:19.954Z,13.70
2018-04-16T00:49:20.527Z,13.83
2018-04-16T00:50:21.103Z,13.74
2018-04-16T00:51:21.672Z,13.52
2018-04-16T00:52:22.248Z,13.47
2018-04-16T00:53:22.818Z,13.44
2018-04-16T00:54:23.393Z,13.54
2018-04-16T00:55:23.965Z,13.50
2018-04-16T00:56:24.540Z,13.65
2018-04-16T00:57:25.112Z,13.42
2018-04-16T00:58:25.687Z,13.46
2018-04-16T00:59:26.270Z,13.75
2018-04-16T01:00:26.845Z,13.68
2018-04-16T01:01:27.468Z,14.00
2018-04-16T01:02:27.991Z,13.63
2018-04-16T01:03:28.567Z,13.52
2018-04-16T01:04:29.150Z,13.49
2018-04-16T01:05:29.724Z,13.28
2018-04-16T01:06:30.298Z,13.65
2018-04-16T01:07:30.870Z,13.63
2018-04-16T01:08:31.444Z,13.75
2018-04-16T01:09:32.017Z,13.81
2018-04-16T01:10:32.593Z,14.03
2018-04-16T01:11:33.160Z,13.89
2018-04-16T01:12:33.734Z,13.92
2018-04-16T01:13:34.312Z,13.57
2018-04-16T01:14:34.890Z,13.47
2018-04-16T01:15:35.465Z,13.46
2018-04-16T01:16:36.038Z,13.56
2018-04-16T01:17:36.610Z,13.47
2018-04-16T01:18:37.183Z,13.75
2018-04-16T01:19:37.757Z,13.68
2018-04-16T01:20:38.328Z,13.54
2018-04-16T01:21:38.901Z,13.38
2018-04-16T01:22:39.479Z,13.44
2018-04-16T01:23:40.052Z,13.35
2018-04-16T01:24:40.633Z,13.49
2018-04-16T01:25:41.205Z,13.22
2018-04-16T01:26:41.781Z,13.13
2018-04-16T01:27:42.351Z,13.41
2018-04-16T01:28:42.926Z,13.16
2018-04-16T01:29:43.501Z,13.15
2018-04-16T01:30:44.084Z,13.13
2018-04-16T01:31:44.657Z,13.15
2018-04-16T01:32:46.643Z,12.95
2018-04-16T01:33:47.215Z,12.87
2018-04-16T01:34:47.793Z,13.00
2018-04-16T01:35:48.361Z,13.39
2018-04-16T01:36:48.933Z,13.41
2018-04-16T01:37:49.506Z,13.19
2018-04-16T01:38:50.078Z,13.05
2018-04-16T01:39:50.651Z,13.01
2018-04-16T01:40:51.224Z,13.28
2018-04-16T01:41:51.795Z,13.23
2018-04-16T01:42:52.370Z,13.15
2018-04-16T01:43:52.939Z,13.15
2018-04-16T01:44:53.511Z,13.18
2018-04-16T01:45:54.094Z,12.83
2018-04-16T01:46:54.677Z,12.76
2018-04-16T01:47:55.250Z,12.83
2018-04-16T01:48:55.824Z,12.75
2018-04-16T01:49:56.397Z,12.76
2018-04-16T01:50:56.971Z,12.80
2018-04-16T01:51:57.543Z,12.82
2018-04-16T01:52:58.117Z,12.65
2018-04-16T01:53:58.688Z,12.68
2018-04-16T01:54:59.262Z,12.90
2018-04-16T01:55:59.833Z,12.98
2018-04-16T01:57:00.417Z,12.79
2018-04-16T01:58:00.998Z,12.76
2018-04-16T01:59:01.578Z,12.73
2018-04-16T02:00:02.141Z,12.79
2018-04-16T02:01:02.712Z,12.76
2018-04-16T02:02:03.283Z,12.94
2018-04-16T02:03:03.855Z,12.93
2018-04-16T02:04:04.436Z,12.87
2018-04-16T02:05:05.010Z,12.93
2018-04-16T02:06:05.581Z,13.00
2018-04-16T02:07:06.155Z,13.08
2018-04-16T02:08:06.729Z,13.05
2018-04-16T02:09:07.301Z,13.05
2018-04-16T02:10:07.870Z,13.08
2018-04-16T02:11:08.440Z,13.04
2018-04-16T02:12:09.025Z,13.12
2018-04-16T02:13:09.598Z,13.09
2018-04-16T02:14:10.170Z,13.08
2018-04-16T02:15:10.742Z,13.23
2018-04-16T02:16:11.315Z,13.11
2018-04-16T02:17:11.890Z,13.15
2018-04-16T02:18:12.458Z,13.25
2018-04-16T02:19:13.030Z,13.27
2018-04-16T02:20:13.602Z,13.25
2018-04-16T02:21:14.175Z,13.33
2018-04-16T02:22:14.748Z,13.27
2018-04-16T02:23:15.317Z,13.22
2018-04-16T02:24:15.893Z,13.31
2018-04-16T02:25:16.473Z,13.31
2018-04-16T02:26:17.044Z,13.23
2018-04-16T02:27:17.615Z,13.23
2018-04-16T02:28:18.187Z,13.37
2018-04-16T02:29:18.759Z,13.46
2018-04-16T02:30:19.331Z,13.37
2018-04-16T02:31:19.902Z,13.19
2018-04-16T02:32:20.474Z,13.33
2018-04-16T02:33:21.046Z,13.25
2018-04-16T02:34:21.616Z,13.33
2018-04-16T02:35:22.188Z,13.30
2018-04-16T02:36:22.769Z,13.27
2018-04-16T02:37:23.351Z,13.38
2018-04-16T02:38:23.934Z,13.35
2018-04-16T02:39:24.507Z,13.33
2018-04-16T02:40:25.077Z,13.37
2018-04-16T02:41:25.651Z,13.44
2018-04-16T02:42:26.231Z,13.33
2018-04-16T02:43:26.793Z,13.39
2018-04-16T02:44:27.365Z,13.50
2018-04-16T02:45:27.940Z,13.44
2018-04-16T02:46:28.517Z,13.49
2018-04-16T02:47:29.088Z,13.44
2018-04-16T02:48:29.661Z,13.50
2018-04-16T02:49:30.237Z,13.35
2018-04-16T02:50:30.805Z,13.37
2018-04-16T02:51:31.377Z,13.30
2018-04-16T02:52:31.950Z,13.31
2018-04-16T02:53:32.522Z,13.46
2018-04-16T02:54:33.104Z,13.46
2018-04-16T02:55:33.678Z,13.30
2018-04-16T02:56:34.258Z,13.42
2018-04-16T02:57:34.829Z,13.38
2018-04-16T02:58:35.400Z,13.50
2018-04-16T02:59:35.977Z,13.52
2018-04-16T03:00:36.554Z,13.52
2018-04-16T03:01:37.126Z,13.60
2018-04-16T03:02:37.698Z,13.47
2018-04-16T03:03:38.269Z,13.41
2018-04-16T03:04:38.842Z,13.47
2018-04-16T03:05:39.431Z,13.42
2018-04-16T03:06:39.997Z,13.30
2018-04-16T03:07:40.570Z,13.37
2018-04-16T03:08:41.155Z,13.33
2018-04-16T03:09:41.725Z,13.38
2018-04-16T03:10:42.299Z,13.30
2018-04-16T03:11:42.870Z,13.37
2018-04-16T03:12:43.443Z,13.33
2018-04-16T03:13:44.044Z,13.25
2018-04-16T03:14:44.589Z,13.30
2018-04-16T03:15:45.162Z,13.19
2018-04-16T03:16:45.731Z,13.19
2018-04-16T03:17:46.314Z,13.15
2018-04-16T03:18:46.886Z,13.20
2018-04-16T03:19:47.460Z,13.16
2018-04-16T03:20:48.032Z,13.05
2018-04-16T03:21:48.605Z,13.12
2018-04-16T03:22:49.176Z,13.16
2018-04-16T03:23:49.750Z,13.12
2018-04-16T03:24:50.330Z,13.11
2018-04-16T03:25:50.903Z,13.04
2018-04-16T03:26:51.476Z,13.15
2018-04-16T03:27:52.049Z,13.05
2018-04-16T03:28:52.629Z,12.94
2018-04-16T03:29:53.201Z,13.03
2018-04-16T03:30:53.773Z,13.12
2018-04-16T03:31:54.345Z,13.05
2018-04-16T03:32:54.918Z,13.08
2018-04-16T03:33:55.499Z,13.09
2018-04-16T03:34:56.070Z,13.04
2018-04-16T03:35:56.643Z,13.05
2018-04-16T03:36:57.212Z,13.08
2018-04-16T03:37:57.784Z,13.13
2018-04-16T03:38:58.366Z,13.05
2018-04-16T03:39:58.938Z,13.08
2018-04-16T03:40:59.515Z,13.11
2018-04-16T03:42:00.084Z,13.12
2018-04-16T03:43:00.656Z,12.98
2018-04-16T03:44:01.226Z,12.95
2018-04-16T03:45:01.804Z,12.98
2018-04-16T03:46:02.370Z,13.01
2018-04-16T03:47:02.941Z,12.90
2018-04-16T03:48:03.512Z,12.94
2018-04-16T03:49:04.084Z,12.94
2018-04-16T03:50:04.656Z,12.85
2018-04-16T03:51:05.226Z,12.91
2018-04-16T03:52:05.798Z,12.98
2018-04-16T03:53:06.369Z,12.95
2018-04-16T03:54:06.951Z,12.86
2018-04-16T03:55:07.523Z,12.91
2018-04-16T03:56:08.095Z,12.90
2018-04-16T03:57:08.668Z,12.90
2018-04-16T03:58:09.237Z,12.79
2018-04-16T03:59:09.812Z,12.78
2018-04-16T04:00:10.385Z,12.86
2018-04-16T04:01:10.974Z,12.78
2018-04-16T04:02:11.534Z,12.80
2018-04-16T04:03:12.105Z,12.80
2018-04-16T04:04:12.677Z,12.82
2018-04-16T04:05:13.247Z,12.90
2018-04-16T04:06:13.817Z,12.93
2018-04-16T04:07:14.389Z,12.76
2018-04-16T04:08:14.959Z,12.76
2018-04-16T04:09:15.531Z,12.76
2018-04-16T04:10:16.113Z,12.67
2018-04-16T04:11:16.685Z,12.82
2018-04-16T04:12:17.259Z,12.67
2018-04-16T04:13:17.829Z,12.91
2018-04-16T04:14:18.403Z,12.78
2018-04-16T04:15:18.973Z,12.72
2018-04-16T04:16:19.545Z,12.79
2018-04-16T04:17:20.116Z,12.76
2018-04-16T04:18:20.687Z,12.85
2018-04-16T04:19:21.269Z,13.01
2018-04-16T04:20:21.842Z,12.78
2018-04-16T04:21:22.415Z,12.67
2018-04-16T04:22:22.986Z,12.72
2018-04-16T04:23:23.558Z,12.85
2018-04-16T04:24:24.129Z,12.68
2018-04-16T04:25:24.701Z,12.87
2018-04-16T04:26:25.271Z,12.68
2018-04-16T04:27:25.846Z,12.76
2018-04-16T04:28:26.425Z,12.55
2018-04-16T04:29:26.997Z,12.70
2018-04-16T04:30:27.570Z,13.05
2018-04-16T04:31:28.151Z,13.11
2018-04-16T04:32:28.735Z,13.00
2018-04-16T04:33:29.309Z,12.75
2018-04-16T04:34:29.880Z,12.78
2018-04-16T04:35:30.452Z,13.00
2018-04-16T04:36:31.026Z,12.54
2018-04-16T04:37:31.597Z,12.65
2018-04-16T04:38:32.173Z,12.70
2018-04-16T04:39:32.746Z,12.50
2018-04-16T04:40:33.327Z,12.35
2018-04-16T04:41:33.899Z,12.70
2018-04-16T04:42:34.472Z,12.50
2018-04-16T04:43:35.045Z,12.58
2018-04-16T04:44:35.617Z,12.06
2018-04-16T04:45:36.195Z,11.90
2018-04-16T04:46:36.777Z,12.10
2018-04-16T04:47:37.359Z,11.95
2018-04-16T04:48:37.960Z,12.31
2018-04-16T04:49:38.515Z,12.25
2018-04-16T04:50:39.089Z,12.39
2018-04-16T04:51:39.663Z,12.15
2018-04-16T04:52:40.235Z,12.39
2018-04-16T04:53:40.808Z,12.27
2018-04-16T04:54:41.380Z,12.24
2018-04-16T04:55:41.954Z,12.50
2018-04-16T04:56:42.526Z,12.15
2018-04-16T04:57:43.099Z,12.58
2018-04-16T04:58:43.673Z,12.55
2018-04-16T04:59:44.247Z,12.55
2018-04-16T05:00:44.821Z,12.46
2018-04-16T05:01:45.393Z,12.42
2018-04-16T05:02:45.966Z,12.37
2018-04-16T05:03:46.539Z,12.55
2018-04-16T05:04:47.111Z,12.55
2018-04-16T05:05:47.685Z,12.47
2018-04-16T05:06:48.259Z,12.54
2018-04-16T05:07:48.832Z,12.57
2018-04-16T05:08:49.405Z,12.24
2018-04-16T05:09:49.985Z,12.07
2018-04-16T05:10:50.562Z,11.95
2018-04-16T05:11:51.134Z,11.91
2018-04-16T05:12:51.708Z,11.95
2018-04-16T05:13:52.279Z,12.12
2018-04-16T05:14:52.852Z,12.15
2018-04-16T05:15:53.425Z,12.35
2018-04-16T05:16:54.001Z,12.35
2018-04-16T05:17:54.571Z,12.09
2018-04-16T05:18:55.144Z,12.21
2018-04-16T05:19:55.719Z,12.27
2018-04-16T05:20:56.292Z,12.12
2018-04-16T05:21:56.866Z,12.09
2018-04-16T05:22:57.440Z,11.77
2018-04-16T05:23:58.012Z,11.77
2018-04-16T05:24:58.591Z,12.04
2018-04-16T05:25:59.168Z,12.28
2018-04-16T05:26:59.742Z,12.40
2018-04-16T05:28:00.316Z,12.42
2018-04-16T05:29:00.903Z,12.28
2018-04-16T05:30:01.481Z,12.17
2018-04-16T05:31:02.058Z,12.06
2018-04-16T05:32:02.633Z,12.24
2018-04-16T05:33:03.208Z,12.40
2018-04-16T05:34:03.783Z,12.24
2018-04-16T05:35:04.359Z,12.36
2018-04-16T05:36:04.934Z,12.43
2018-04-16T05:37:05.509Z,12.68
2018-04-16T05:38:06.082Z,12.49
2018-04-16T05:39:06.656Z,12.67
2018-04-16T05:40:07.232Z,12.79
2018-04-16T05:41:07.808Z,12.76
2018-04-16T05:42:08.382Z,12.76
2018-04-16T05:43:08.956Z,12.76
2018-04-16T05:44:09.531Z,12.94
2018-04-16T05:45:10.109Z,12.95
2018-04-16T05:46:10.684Z,12.93
2018-04-16T05:47:11.258Z,12.94
2018-04-16T05:48:11.832Z,13.19
2018-04-16T05:49:12.430Z,12.91
2018-04-16T05:50:12.980Z,12.97
2018-04-16T05:51:13.556Z,13.01
2018-04-16T05:52:14.130Z,13.19
2018-04-16T05:53:14.705Z,12.94
2018-04-16T05:54:15.291Z,13.09
2018-04-16T05:55:15.864Z,12.97
2018-04-16T05:56:16.439Z,12.95
2018-04-16T05:57:17.013Z,13.04
2018-04-16T05:58:17.589Z,12.95
2018-04-16T05:59:18.173Z,12.94
2018-04-16T06:00:18.798Z,12.90
2018-04-16T06:01:19.336Z,13.03
2018-04-16T06:02:19.912Z,12.97
2018-04-16T06:03:20.492Z,13.05
2018-04-16T06:04:21.062Z,13.09
2018-04-16T06:05:21.636Z,13.00
2018-04-16T06:06:22.211Z,13.01
2018-04-16T06:07:22.787Z,13.05
2018-04-16T06:08:23.363Z,13.44
2018-04-16T06:09:23.949Z,13.49
2018-04-16T06:10:24.538Z,13.74
2018-04-16T06:11:25.109Z,13.52
2018-04-16T06:12:25.687Z,13.42
2018-04-16T06:13:26.273Z,13.63
2018-04-16T06:14:26.852Z,13.71
2018-04-16T06:15:27.436Z,13.46
2018-04-16T06:16:28.013Z,13.56
2018-04-16T06:17:28.586Z,13.60
2018-04-16T06:18:29.161Z,13.63
2018-04-16T06:19:29.736Z,13.53
2018-04-16T06:20:30.320Z,13.49
2018-04-16T06:21:30.896Z,13.49
2018-04-16T06:22:31.471Z,13.56
2018-04-16T06:23:32.047Z,13.67
2018-04-16T06:24:32.622Z,14.11
2018-04-16T06:25:33.209Z,13.97
2018-04-16T06:26:33.785Z,13.77
2018-04-16T06:27:34.361Z,13.65
2018-04-16T06:28:34.936Z,13.62
2018-04-16T06:29:35.511Z,13.52
2018-04-16T06:30:36.093Z,13.42
2018-04-16T06:31:36.677Z,13.31
2018-04-16T06:32:37.248Z,13.28
2018-04-16T06:33:37.825Z,13.38
2018-04-16T06:34:38.400Z,13.28
2018-04-16T06:35:38.975Z,13.31
2018-04-16T06:36:39.551Z,13.30
2018-04-16T06:37:40.127Z,13.47
2018-04-16T06:38:40.702Z,13.47
2018-04-16T06:39:41.276Z,13.44
2018-04-16T06:40:41.851Z,13.52
2018-04-16T06:41:42.428Z,13.46
2018-04-16T06:42:43.014Z,13.42
2018-04-16T06:43:43.593Z,13.42
2018-04-16T06:44:44.179Z,13.47
2018-04-16T06:45:44.750Z,13.49
2018-04-16T06:46:45.325Z,13.50
2018-04-16T06:47:45.902Z,13.47
2018-04-16T06:48:46.477Z,13.46
2018-04-16T06:49:47.051Z,13.50
2018-04-16T06:50:47.638Z,13.46
2018-04-16T06:51:48.213Z,13.49
2018-04-16T06:52:48.787Z,13.52
2018-04-16T06:53:49.363Z,13.52
2018-04-16T06:54:49.939Z,13.70
2018-04-16T06:55:50.514Z,13.71
2018-04-16T06:56:51.089Z,13.86
2018-04-16T06:57:51.675Z,13.71
2018-04-16T06:58:52.251Z,13.72
2018-04-16T06:59:52.827Z,13.77
2018-04-16T07:00:53.416Z,13.85
2018-04-16T07:01:54.075Z,13.68
2018-04-16T07:02:54.588Z,13.75
2018-04-16T07:03:55.174Z,13.75
2018-04-16T07:04:55.759Z,13.79
2018-04-16T07:05:56.335Z,13.79
2018-04-16T07:06:56.920Z,13.86
2018-04-16T07:07:57.495Z,13.81
2018-04-16T07:08:58.083Z,14.10
2018-04-16T07:09:58.655Z,14.00
2018-04-16T07:10:59.230Z,13.95
2018-04-16T07:11:59.805Z,14.17
2018-04-16T07:13:00.380Z,14.07
2018-04-16T07:14:00.959Z,14.15
2018-04-16T07:15:01.546Z,14.07
2018-04-16T07:16:02.143Z,14.17
2018-04-16T07:17:02.705Z,14.04
2018-04-16T07:18:03.291Z,13.97
2018-04-16T07:19:03.864Z,13.90
2018-04-16T07:20:04.440Z,13.95
2018-04-16T07:21:05.021Z,14.03
2018-04-16T07:22:05.604Z,14.11
2018-04-16T07:23:06.180Z,13.90
2018-04-16T07:24:06.757Z,13.87
2018-04-16T07:25:07.329Z,13.77
2018-04-16T07:26:07.912Z,13.74
2018-04-16T07:27:08.484Z,13.89
2018-04-16T07:28:09.057Z,13.92
2018-04-16T07:29:09.636Z,13.89
2018-04-16T07:30:10.208Z,13.89
2018-04-16T07:31:10.784Z,13.95
2018-04-16T07:32:11.361Z,13.87
2018-04-16T07:33:11.936Z,13.95
2018-04-16T07:34:12.524Z,13.97
2018-04-16T07:35:13.106Z,13.92
2018-04-16T07:36:13.684Z,13.90
2018-04-16T07:37:14.260Z,13.92
2018-04-16T07:38:14.836Z,13.93
2018-04-16T07:39:15.410Z,13.93
2018-04-16T07:40:15.988Z,14.00
2018-04-16T07:41:16.561Z,14.15
2018-04-16T07:42:17.136Z,14.28
2018-04-16T07:43:17.711Z,14.11
2018-04-16T07:44:18.287Z,14.00
2018-04-16T07:45:18.861Z,14.18
2018-04-16T07:46:19.438Z,14.07
2018-04-16T07:47:20.015Z,13.97
2018-04-16T07:48:20.592Z,14.12
2018-04-16T07:49:21.166Z,14.07
2018-04-16T07:50:21.743Z,14.17
2018-04-16T07:51:22.319Z,14.22
2018-04-16T07:52:22.893Z,14.36
2018-04-16T07:53:23.469Z,14.47
2018-04-16T07:54:24.042Z,14.53
2018-04-16T07:55:24.618Z,14.60
2018-04-16T07:56:25.194Z,14.69
2018-04-16T07:57:25.770Z,14.89
2018-04-16T07:58:26.344Z,14.84
2018-04-16T07:59:26.919Z,15.00
2018-04-16T08:00:27.496Z,15.03
2018-04-16T08:01:28.106Z,14.91
2018-04-16T08:02:28.647Z,15.10
2018-04-16T08:03:29.225Z,15.03
2018-04-16T08:04:29.798Z,15.09
2018-04-16T08:05:30.375Z,15.15
2018-04-16T08:06:30.960Z,15.10
2018-04-16T08:14:54.162Z,15.17
2018-04-16T08:15:54.740Z,15.29
2018-04-16T08:16:55.327Z,15.19
2018-04-16T08:17:55.902Z,15.15
2018-04-16T08:18:56.478Z,15.19
2018-04-16T08:19:57.055Z,15.46
2018-04-16T08:20:57.633Z,15.47
2018-04-16T08:21:58.209Z,15.25
2018-04-16T08:22:58.796Z,15.24
2018-04-16T08:23:59.372Z,15.42
2018-04-16T08:24:59.948Z,15.36
2018-04-16T08:26:00.524Z,15.47
2018-04-16T08:27:01.109Z,15.64
2018-04-16T08:28:01.696Z,15.25
2018-04-16T08:29:02.274Z,15.44
2018-04-16T08:30:02.851Z,15.54
2018-04-16T08:31:03.429Z,15.54
2018-04-16T08:32:04.006Z,15.77
2018-04-16T08:33:04.582Z,16.09
2018-04-16T08:34:05.162Z,15.88
2018-04-16T08:35:05.733Z,15.92
2018-04-16T08:36:06.311Z,15.88
2018-04-16T08:37:06.886Z,15.91
2018-04-16T08:38:07.463Z,15.73
2018-04-16T08:39:08.041Z,15.58
2018-04-16T08:40:08.625Z,15.76
2018-04-16T08:41:09.201Z,15.79
2018-04-16T08:42:09.777Z,15.77
2018-04-16T08:43:10.354Z,15.72
2018-04-16T08:44:10.932Z,15.88
2018-04-16T08:45:11.508Z,15.52
2018-04-16T08:46:12.098Z,15.94
2018-04-16T08:47:12.674Z,16.02
2018-04-16T08:48:13.250Z,15.95
2018-04-16T08:49:13.828Z,15.94
2018-04-16T08:50:14.414Z,15.92
2018-04-16T08:51:14.992Z,16.13
2018-04-16T08:52:15.576Z,15.91
2018-04-16T08:53:16.151Z,15.77
2018-04-16T08:54:16.726Z,15.75
2018-04-16T08:55:17.304Z,15.86
2018-04-16T08:56:17.882Z,15.77
2018-04-16T08:57:18.458Z,16.00
2018-04-16T08:58:19.037Z,15.95
2018-04-16T08:59:19.612Z,15.91
2018-04-16T09:00:20.189Z,15.72
2018-04-16T09:01:20.768Z,15.90
2018-04-16T09:02:21.344Z,16.12
2018-04-16T09:03:21.919Z,16.13
2018-04-16T09:04:22.497Z,16.12
2018-04-16T09:05:23.073Z,16.31
2018-04-16T09:06:23.649Z,16.32
2018-04-16T09:07:24.225Z,16.32
2018-04-16T09:08:24.801Z,16.43
2018-04-16T09:09:25.381Z,16.61
2018-04-16T09:10:25.968Z,16.66
2018-04-16T09:11:26.546Z,16.53
2018-04-16T09:12:27.123Z,16.53
2018-04-16T09:13:27.711Z,16.26
2018-04-16T09:14:28.292Z,16.13
2018-04-16T09:15:28.867Z,16.23
2018-04-16T09:16:29.445Z,16.24
2018-04-16T09:17:30.022Z,16.28
2018-04-16T09:18:30.600Z,16.28
2018-04-16T09:19:31.177Z,16.26
2018-04-16T09:20:31.753Z,15.95
2018-04-16T09:21:32.329Z,16.08
2018-04-16T09:22:32.909Z,16.12
2018-04-16T09:23:33.487Z,15.79
2018-04-16T09:24:34.064Z,15.94
2018-04-16T09:25:34.639Z,16.08
2018-04-16T09:26:35.218Z,16.13
2018-04-16T09:27:35.833Z,16.38
2018-04-16T09:28:36.370Z,16.41
2018-04-16T09:29:36.946Z,16.43
2018-04-16T09:30:37.534Z,16.38
2018-04-16T09:31:38.111Z,16.68
2018-04-16T09:32:38.687Z,16.87
2018-04-16T09:33:39.265Z,17.05
2018-04-16T09:34:39.844Z,16.90
2018-04-16T09:35:40.422Z,16.49
2018-04-16T09:36:41.010Z,16.57
2018-04-16T09:37:41.588Z,16.31
2018-04-16T09:38:42.163Z,16.42
2018-04-16T09:39:42.740Z,16.39
2018-04-16T09:40:43.320Z,16.54
2018-04-16T09:41:43.897Z,16.66
2018-04-16T09:42:44.474Z,16.76
2018-04-16T09:43:45.051Z,17.01
2018-04-16T09:44:45.627Z,16.91
2018-04-16T09:45:46.205Z,16.66
2018-04-16T09:46:46.783Z,16.81
2018-04-16T09:47:47.361Z,16.76
2018-04-16T09:48:47.940Z,16.97
2018-04-16T09:49:48.516Z,17.05
2018-04-16T09:50:49.094Z,16.90
2018-04-16T09:51:49.671Z,16.93
2018-04-16T09:52:50.246Z,17.05
2018-04-16T09:53:50.825Z,16.66
2018-04-16T09:54:51.403Z,16.74
2018-04-16T09:55:52.010Z,16.86
2018-04-16T09:56:52.559Z,17.09
2018-04-16T09:57:53.138Z,17.12
2018-04-16T09:58:53.717Z,16.72
2018-04-16T09:59:54.293Z,16.71
2018-04-16T10:00:54.891Z,16.84
2018-04-16T10:01:55.459Z,17.19
2018-04-16T10:02:56.030Z,17.34
2018-04-16T10:03:56.607Z,17.46
2018-04-16T10:04:57.183Z,17.65
2018-04-16T10:05:57.765Z,17.51
2018-04-16T10:06:58.339Z,17.68
2018-04-16T10:07:58.928Z,17.76
2018-04-16T10:08:59.506Z,17.39
2018-04-16T10:10:00.083Z,17.45
2018-04-16T10:11:00.672Z,17.72
2018-04-16T10:12:01.249Z,17.46
2018-04-16T10:13:01.826Z,17.41
2018-04-16T10:14:02.403Z,17.27
2018-04-16T10:15:02.981Z,17.39
2018-04-16T10:16:03.562Z,17.65
2018-04-16T10:17:04.139Z,17.64
2018-04-16T10:18:04.731Z,17.70
2018-04-16T10:19:05.306Z,17.83
2018-04-16T10:20:05.883Z,17.97
2018-04-16T10:21:06.462Z,17.76
2018-04-16T10:22:07.042Z,17.67
2018-04-16T10:23:07.621Z,17.70
2018-04-16T10:24:08.198Z,17.48
2018-04-16T10:25:08.777Z,17.30
2018-04-16T10:26:09.356Z,17.20
2018-04-16T10:27:09.934Z,17.56
2018-04-16T10:28:10.525Z,17.98
2018-04-16T10:29:11.111Z,17.86
2018-04-16T10:30:11.688Z,17.86
2018-04-16T10:31:12.267Z,17.57
2018-04-16T10:32:12.844Z,17.24
2018-04-16T10:33:13.421Z,17.22
2018-04-16T10:34:14.016Z,17.27
2018-04-16T10:35:14.589Z,17.29
2018-04-16T10:36:15.167Z,17.06
2018-04-16T10:37:15.748Z,17.05
2018-04-16T10:38:16.337Z,17.05
2018-04-16T10:39:16.924Z,17.08
2018-04-16T10:40:17.501Z,17.16
2018-04-16T10:41:18.084Z,17.29
2018-04-16T10:42:18.659Z,17.41
2018-04-16T10:43:19.236Z,17.49
2018-04-16T10:44:19.812Z,17.27
2018-04-16T10:45:20.391Z,17.26
2018-04-16T10:46:20.972Z,17.67
2018-04-16T10:47:21.548Z,17.86
2018-04-16T10:48:22.126Z,17.78
2018-04-16T10:49:22.704Z,17.71
2018-04-16T10:50:23.283Z,17.89
2018-04-16T10:51:23.862Z,17.68
2018-04-16T10:52:24.439Z,17.60
2018-04-16T10:53:25.017Z,17.20
2018-04-16T10:54:25.597Z,17.22
2018-04-16T10:55:26.177Z,17.70
2018-04-16T10:56:26.750Z,17.92
2018-04-16T10:57:27.325Z,17.85
2018-04-16T10:58:27.904Z,17.59
2018-04-16T10:59:28.483Z,17.82
2018-04-16T11:00:29.061Z,17.38
2018-04-16T11:01:29.637Z,17.45
2018-04-16T11:02:30.214Z,17.70
2018-04-16T11:03:30.792Z,17.46
2018-04-16T11:04:31.372Z,17.74
2018-04-16T11:05:31.949Z,17.33
2018-04-16T11:06:32.526Z,17.16
2018-04-16T11:07:33.104Z,17.42
2018-04-16T11:08:33.682Z,17.34
2018-04-16T11:09:34.261Z,17.48
2018-04-16T11:10:34.838Z,17.64
2018-04-16T11:11:35.415Z,17.72
2018-04-16T11:12:35.994Z,18.05
2018-04-16T11:13:36.571Z,17.98
2018-04-16T11:14:37.150Z,17.82
2018-04-16T11:15:37.739Z,17.94
2018-04-16T11:16:38.317Z,17.80
2018-04-16T11:17:38.893Z,17.68
2018-04-16T11:18:39.469Z,17.42
2018-04-16T11:19:40.047Z,17.26
2018-04-16T11:20:40.628Z,17.24
2018-04-16T11:21:41.203Z,17.27
2018-04-16T11:22:41.782Z,17.64
2018-04-16T11:23:42.358Z,17.70
2018-04-16T11:24:42.937Z,17.90
2018-04-16T11:25:43.517Z,18.01
2018-04-16T11:26:44.094Z,18.08
2018-04-16T11:27:44.671Z,18.31
2018-04-16T11:28:45.250Z,18.10
2018-04-16T11:29:45.829Z,17.39
2018-04-16T11:30:46.407Z,17.27
2018-04-16T11:31:46.986Z,17.29
2018-04-16T11:32:47.563Z,17.41
2018-04-16T11:33:48.141Z,17.48
2018-04-16T11:34:48.718Z,17.31
2018-04-16T11:35:49.296Z,17.48
2018-04-16T11:36:49.874Z,17.68
2018-04-16T11:37:50.454Z,17.70
2018-04-16T11:38:51.034Z,17.52
2018-04-16T11:39:51.608Z,18.04
2018-04-16T11:40:52.197Z,18.43
2018-04-16T11:41:52.784Z,18.16
2018-04-16T11:42:53.363Z,17.94
2018-04-16T11:43:53.940Z,18.01
2018-04-16T11:44:54.520Z,17.76
2018-04-16T11:45:55.099Z,18.08
2018-04-16T11:46:55.685Z,18.03
2018-04-16T11:47:56.263Z,18.18
2018-04-16T11:48:56.839Z,18.07
2018-04-16T11:49:57.418Z,18.22
2018-04-16T11:50:58.001Z,18.16
2018-04-16T11:51:58.587Z,17.67
2018-04-16T11:52:59.175Z,17.76
2018-04-16T11:53:59.754Z,17.60
2018-04-16T11:55:00.334Z,17.59
2018-04-16T11:56:00.914Z,17.45
2018-04-16T11:57:01.490Z,17.46
2018-04-16T11:58:02.070Z,17.80
2018-04-16T11:59:02.660Z,18.08
2018-04-16T12:00:03.250Z,18.31
2018-04-16T12:01:03.828Z,18.80
2018-04-16T12:02:04.407Z,18.73
2018-04-16T12:03:04.984Z,18.58
2018-04-16T12:04:05.561Z,18.47
2018-04-16T12:05:06.139Z,18.49
2018-04-16T12:06:06.716Z,18.16
2018-04-16T12:07:07.296Z,17.90
2018-04-16T12:08:07.873Z,17.78
2018-04-16T12:09:08.452Z,17.89
2018-04-16T12:10:09.029Z,18.16
2018-04-16T12:11:09.607Z,17.74
2018-04-16T12:12:10.186Z,17.71
2018-04-16T12:13:10.763Z,18.07
2018-04-16T12:14:11.341Z,17.85
2018-04-16T12:15:11.921Z,18.11
2018-04-16T12:16:12.497Z,17.90
2018-04-16T12:17:13.077Z,17.92
2018-04-16T12:18:13.654Z,17.94
2018-04-16T12:19:14.231Z,17.85
2018-04-16T12:20:14.814Z,17.85
2018-04-16T12:21:15.388Z,18.03
2018-04-16T12:22:16.015Z,17.92
2018-04-16T12:23:16.545Z,17.97
2018-04-16T12:24:17.123Z,17.90
2018-04-16T12:25:17.714Z,17.79
2018-04-16T12:26:18.291Z,17.68
2018-04-16T12:27:18.880Z,17.45
2018-04-16T12:28:19.458Z,17.46
2018-04-16T12:29:20.038Z,17.57
2018-04-16T12:30:20.617Z,18.15
2018-04-16T12:31:21.195Z,18.35
2018-04-16T12:32:21.774Z,18.31
2018-04-16T12:33:22.353Z,18.33
2018-04-16T12:34:22.936Z,18.47
2018-04-16T12:35:23.524Z,18.65
2018-04-16T12:36:24.101Z,19.07
2018-04-16T12:37:24.720Z,19.12
2018-04-16T12:38:25.261Z,19.16
2018-04-16T12:39:25.839Z,18.98
2018-04-16T12:40:26.418Z,18.80
2018-04-16T12:41:26.998Z,18.78
2018-04-16T12:42:27.578Z,18.26
2018-04-16T12:43:28.158Z,18.58
2018-04-16T12:44:28.739Z,18.73
2018-04-16T12:45:29.315Z,18.89
2018-04-16T12:46:29.909Z,18.92
2018-04-16T12:47:30.483Z,18.71
2018-04-16T12:48:31.061Z,18.44
2018-04-16T12:49:31.642Z,18.44
2018-04-16T12:50:32.220Z,18.56
2018-04-16T12:51:32.800Z,18.19
2018-04-16T12:52:33.387Z,18.19
2018-04-16T12:53:33.966Z,18.70
2018-04-16T12:54:34.545Z,18.84
2018-04-16T12:55:35.126Z,18.93
2018-04-16T12:56:35.703Z,18.86
2018-04-16T12:57:36.281Z,18.68
2018-04-16T12:58:36.860Z,18.45
2018-04-16T12:59:37.440Z,18.29
2018-04-16T13:00:38.020Z,18.37
2018-04-16T13:01:38.612Z,18.98
2018-04-16T13:02:39.191Z,18.80
2018-04-16T13:03:39.770Z,18.95
2018-04-16T13:04:40.352Z,18.62
2018-04-16T13:05:40.942Z,18.38
2018-04-16T13:06:41.521Z,18.35
2018-04-16T13:07:42.101Z,18.37